TimeMST,TemperatureF,Dew PointF,Humidity,Sea Level PressureIn,VisibilityMPH,Wind Direction,Wind SpeedMPH,Gust SpeedMPH,PrecipitationIn,Events,Conditions,WindDirDegrees,DateUTC
12:58 AM,30.7,25.5,81,30.23,10.0,East,6.9,-,N/A,,Clear,80,2013-11-27 07:58:00
1:58 AM,28.0,23.9,84,30.22,10.0,North,5.8,-,N/A,,Clear,360,2013-11-27 08:58:00
2:58 AM,27.5,24.1,87,30.22,10.0,NE,5.8,-,N/A,,Clear,40,2013-11-27 09:58:00
3:58 AM,24.8,23.0,93,30.21,10.0,ENE,4.6,-,N/A,,Clear,70,2013-11-27 10:58:00
4:58 AM,23.5,23.4,99,30.23,10.0,East,4.6,-,N/A,,Clear,90,2013-11-27 11:58:00
5:58 AM,23.5,23.0,98,30.23,10.0,East,3.5,-,N/A,,Partly Cloudy,90,2013-11-27 12:58:00
6:58 AM,25.7,23.2,90,30.23,10.0,East,4.6,-,N/A,,Clear,80,2013-11-27 13:58:00
7:58 AM,23.7,23.0,97,30.23,10.0,ENE,2.3,-,N/A,,Clear,70,2013-11-27 14:58:00
8:58 AM,26.6,25.3,95,30.25,10.0,ENE,4.6,-,N/A,,Clear,60,2013-11-27 15:58:00
9:58 AM,32.7,27.5,81,30.24,10.0,East,4.6,-,N/A,,Clear,90,2013-11-27 16:58:00
10:58 AM,38.1,25.3,60,30.21,10.0,East,5.8,-,N/A,,Partly Cloudy,80,2013-11-27 17:58:00
11:58 AM,40.5,26.1,57,30.19,10.0,SE,6.9,-,N/A,,Partly Cloudy,130,2013-11-27 18:58:00
12:58 PM,42.4,26.2,53,30.15,10.0,SE,5.8,-,N/A,,Clear,140,2013-11-27 19:58:00
1:58 PM,44.4,25.9,48,30.13,10.0,Calm,Calm,-,N/A,,Clear,0,2013-11-27 20:58:00
2:58 PM,45.7,26.2,47,30.12,10.0,SW,3.5,-,N/A,,Clear,220,2013-11-27 21:58:00
3:58 PM,45.9,26.2,46,30.11,10.0,WSW,4.6,-,N/A,,Clear,240,2013-11-27 22:58:00
4:58 PM,41.2,25.9,55,30.13,10.0,West,3.5,-,N/A,,Clear,280,2013-11-27 23:58:00
5:58 PM,36.9,26.8,67,30.13,10.0,NNW,4.6,-,N/A,,Clear,330,2013-11-28 00:58:00
6:58 PM,36.3,27.9,71,30.13,10.0,NNE,5.8,-,N/A,,Clear,20,2013-11-28 01:58:00
7:58 PM,36.3,28.0,72,30.14,10.0,North,1.2,-,N/A,,Clear,350,2013-11-28 02:58:00
8:58 PM,30.2,27.5,90,30.15,10.0,Calm,Calm,-,N/A,,Partly Cloudy,0,2013-11-28 03:58:00
9:58 PM,29.1,27.0,92,30.14,10.0,North,1.2,-,N/A,,Clear,350,2013-11-28 04:58:00
10:58 PM,29.1,27.5,94,30.14,10.0,North,2.3,-,N/A,,Clear,10,2013-11-28 05:58:00
11:58 PM,27.9,26.6,95,30.14,10.0,North,3.5,-,N/A,,Clear,10,2013-11-28 06:58:00